• Join FlightAware (Why Join?)
  • Login
  • US Flag 
05:33AM EDT


 

Airport Tracker/Info


-or-


 

Live Flight TrackerFlight Track Log ✈ DAL3974 ✈ 11-Nov-2013 ✈ KFNT - KMSP

Flight Track Log - Related Links

Times and Time Zones

All times are in EST time to prevent confusion due to time zone crossing. See the DAL3974 flight status page for this flight to view local times or setup timezone preferences in your user account.

Time Position Orientation Groundspeed Altitude Reporting Facility
EST Latitude Longitude Course Direction KTS MPH feet Rate Location/Type
05:27PM 42.9678 -83.7819 291° West 128 147 2,200  Level Cleveland Center
05:28PM 42.9856 -83.8442 291° West 188 216 4,700 2,460 Climbing Cleveland Center
05:29PM 43.0278 -83.9067 313° West 233 268 7,300 2,520 Climbing Cleveland Center
05:30PM 43.0603 -83.9900 298° West 233 268 10,000 1,440 Climbing Cleveland Center
05:31PM 43.0969 -84.0839 298° West 284 327 10,300 960 Climbing Cleveland Center
05:32PM 43.1392 -84.1956 297° West 324 373 12,000 1,620 Climbing Cleveland Center
05:33PM 43.1928 -84.2956 306° West 328 377 13,700 1,500 Climbing Cleveland Center
05:34PM 43.2481 -84.4047 305° West 329 379 15,200 1,200 Climbing Cleveland Center
05:35PM 43.2900 -84.5194 297° West 337 388 16,300 1,080 Climbing Cleveland Center
05:36PM 43.3328 -84.6342 297° West 340 391 17,500 1,020 Climbing Cleveland Center
05:37PM 43.3750 -84.7497 297° West 339 390 18,500 1,020 Climbing Cleveland Center
05:38PM 43.4256 -84.8864 297° West 337 388 19,700 1,020 Climbing Cleveland Center
05:39PM 43.4672 -85.0025 296° West 339 390 20,700 960 Climbing Cleveland Center
05:40PM 43.5081 -85.1150 297° West 332 382 21,700 960 Climbing Cleveland Center
05:41PM 43.5489 -85.2264 297° West 328 377 22,700 960 Climbing Cleveland Center
05:42PM 43.5883 -85.3381 296° West 325 374 23,700 1,020 Climbing Cleveland Center
05:43PM 43.6353 -85.4694 296° West 320 368 24,900 1,020 Climbing Cleveland Center
05:44PM 43.6656 -85.5808 291° West 313 360 25,900 960 Climbing Cleveland Center
05:45PM 43.6922 -85.6939 288° West 311 358 26,900 960 Climbing Cleveland Center
05:46PM 43.7192 -85.8019 289° West 301 346 27,900 480 Climbing Cleveland Center
05:47PM 43.7453 -85.9142 288° West 306 352 28,000  Climbing Cleveland Center
05:48PM 43.7772 -86.0550 287° West 318 366 28,000  Level Cleveland Center
05:49PM 43.8064 -86.1761 288° West 328 377 28,000  Level Cleveland Center
05:50PM 43.8400 -86.3253 287° West 337 388 28,000  Level Minneapolis Center
05:51PM 43.8694 -86.4500 288° West 341 392 28,000  Level Minneapolis Center
05:53PM 43.8986 -86.5747 288° West 342 394 28,000  Level Minneapolis Center
05:54PM 43.9275 -86.7017 288° West 345 397 28,000  Level Minneapolis Center
05:55PM 43.9558 -86.8289 287° West 347 399 28,000  Level Minneapolis Center
05:56PM 43.9847 -86.9558 288° West 346 398 28,000  Level Minneapolis Center
05:57PM 44.0136 -87.0847 287° West 351 404 28,000  Level Minneapolis Center
05:58PM 44.0486 -87.2406 287° West 352 405 28,000  Level Minneapolis Center
05:59PM 44.0772 -87.3792 286° West 351 404 28,000  Level Minneapolis Center
06:00PM 44.1069 -87.5106 288° West 355 409 28,000  Level Minneapolis Center
06:01PM 44.1361 -87.6442 287° West 360 414 28,000  Level Minneapolis Center
06:02PM 44.1653 -87.7781 287° West 362 417 28,000  Level Minneapolis Center
06:03PM 44.1939 -87.9119 287° West 363 418 28,000  Level Minneapolis Center
06:04PM 44.2231 -88.0458 287° West 363 418 28,000  Level Minneapolis Center
06:05PM 44.2522 -88.1803 287° West 364 419 28,000  Level Minneapolis Center
06:06PM 44.2861 -88.3417 286° West 364 419 28,000  Level Minneapolis Center
06:07PM 44.3144 -88.4778 286° West 367 422 28,000  Level Minneapolis Center
06:08PM 44.3433 -88.6133 287° West 367 422 28,000  Level Minneapolis Center
06:09PM 44.3711 -88.7481 286° West 365 420 28,000  Level Minneapolis Center
06:10PM 44.4006 -88.8839 287° West 366 421 28,000  Level Minneapolis Center
06:11PM 44.4269 -89.0206 285° West 366 421 28,000  Level Minneapolis Center
06:12PM 44.4544 -89.1556 286° West 364 419 28,000  Level Minneapolis Center
06:13PM 44.4875 -89.3189 286° West 365 420 28,000  Level Minneapolis Center
06:14PM 44.5153 -89.4586 286° West 369 425 28,000  Level Minneapolis Center
06:15PM 44.5428 -89.5978 286° West 372 428 28,000  Level Minneapolis Center
06:16PM 44.5703 -89.7356 286° West 370 426 28,000  Level Minneapolis Center
06:17PM 44.5986 -89.8736 286° West 370 426 28,000  Level Minneapolis Center
06:18PM 44.6258 -90.0100 286° West 367 422 28,000  Level Minneapolis Center
06:19PM 44.6533 -90.1497 286° West 370 426 28,000  Level Minneapolis Center
06:20PM 44.6861 -90.3150 286° West 369 425 28,000  Level Minneapolis Center
06:21PM 44.7128 -90.4550 285° West 371 427 28,000 -300 Level Minneapolis Center
06:22PM 44.7358 -90.5786 285° West 373 429 27,500 -540 Descending Minneapolis Center
06:23PM 44.7683 -90.7514 285° West 381 438 26,900 -540 Descending Minneapolis Center
06:24PM 44.7958 -90.8961 285° West 384 442 26,400 -540 Descending Minneapolis Center
06:25PM 44.8239 -91.0403 285° West 384 442 25,800 -600 Descending Minneapolis Center
06:26PM 44.8514 -91.1847 285° West 382 440 25,200 -660 Descending Minneapolis Center
06:27PM 44.8753 -91.3292 283° West 382 440 24,500 -840 Descending Minneapolis Center
06:28PM 44.9025 -91.4711 285° West 378 435 23,500 -1,380 Descending Minneapolis Center
06:29PM 44.9283 -91.6133 284° West 376 433 21,700 -2,280 Descending Minneapolis Center
06:31PM 44.9592 -91.7814 285° West 371 427 18,900 -2,280 Descending Minneapolis Center
06:32PM 44.9839 -91.9164 285° West 360 414 17,100 -2,040 Descending Minneapolis Center
06:33PM 45.0081 -92.0511 284° West 356 410 14,800 -2,280 Descending Minneapolis Center
06:34PM 45.0314 -92.1883 284° West 352 405 12,500 -1,860 Descending Minneapolis Center
06:35PM 45.0436 -92.3203 278° West 355 409 11,000 -840 Descending Minneapolis Center
06:36PM 45.0092 -92.4539 250° West 363 418 10,800 -840 Descending Minneapolis Center
06:37PM 44.9492 -92.5725 234° Southwest 295 339 9,300 -1,740 Descending Minneapolis Center
06:38PM 44.8931 -92.6433 222° Southwest 279 321 7,300 -1,140 Descending Minneapolis Center
06:39PM 44.8272 -92.6892 206° Southwest 265 305 7,000 -660 Descending Minneapolis Center
06:40PM 44.7822 -92.7497 224° Southwest 239 275 6,000 -960 Descending Minneapolis Center
06:41PM 44.7961 -92.8367 283° West 230 265 5,100 -780 Descending Minneapolis Center
06:42PM 44.8078 -92.9211 281° West 223 257 4,500 -720 Descending Minneapolis Center
06:43PM 44.8161 -92.9869 280° West 173 199 3,700 -780 Descending Minneapolis Center
06:44PM 44.8228 -93.0625 277° West 164 189 3,000 -660 Descending Minneapolis Center
06:45PM 44.8450 -93.1111 303° West 149 171 2,400 -720 Descending Minneapolis Center
06:46PM 44.8628 -93.1514 302° West 125 144 1,600 -780 Descending Minneapolis Center
06:48PM 44.8667 -93.2167 245° Southwest  Level FlightAware Approximate
06:55PM 44.8820 -93.2218 245° Southwest  Level Estimated